首页
METAR-TAF:

METAR-TAF

机场 :

Wrangell, 阿拉斯加州, 美国

纬度: 56-29N, 经度: 132-22W, 海拔: 13米

当前天气观测

该预报发布于1小时和11分钟前的14:56 UTC
静风
温度 14°C
湿度 88%
气压 1019 hPa
能見度: 16.1公里
阴天层高于1700英尺

METAR: PAWG 211456Z 00000KT 10SM OVC017 14/12 A3010

时间: 08:07 (16:07 UTC)

预报

该预报发布于4小时和24分钟前的11:43 UTC
预报有效从21日的 12点(UTC)到 22日的 12点(UTC)
风速节,风向
能見度: 10公里
少量云层高于400英尺
多云层高于1500英尺
短暂存在
从 21日的 12点(UTC)到 21日的 14点(UTC)
能見度: 1.6公里
散云层高于400英尺
轻雾
从 21日的 1600点(UTC)
风速4节,风向西
能見度: 10公里
阴天层高于5000英尺
从 22日的 0800点(UTC)
风速4节,风向多变
能見度: 10公里
散云层高于2500英尺
阴天层高于4000英尺

TAF: PAWG 211143Z 2112/2212 00000KT P6SM FEW004 BKN015 TEMPO 2112/2114 1SM BR SCT004 FM211600 26004KT P6SM OVC050 FM220800 VRB04KT P6SM SCT025 OVC040 AMD NOT SKED 2112/2115

超过4000个机场的气象观测和天气预报(METAR&TAF报告)。

可查询的气象台以黄色和红色小点在地图上表示。

将鼠标移到小点上方,可查看气象台名称。

然后点击查看天气观测和预报。

如需切换地图:点击带黑十字的绿色按钮放大地图;点击带横线的绿色按钮缩小地图;或者点击绿色箭头查看邻近地区的地图。


METAR-TAF: